»·PEaware :: N518XA KPVF-KWVI

N518XA :: KPVF-KWVI

FLIGHT INFORMATION

Flight Status: Arrived
Operator: Privately registered:
United States
More flights under this callsign
Pilot: Edward H. (2712)
Aircraft: BELL TEXTRON JET RANGER
(B06)
More flights by this aircraft type
Origin: KPVF Placerville
United States
Destination: KWVI Watsonville Mun
United States
More flights between these airports :: More routes between these airports
Route: +
File this flight plan on PilotEdge
Remarks:
Altitude:
(Current/Filed)
2,500ft
Speed:
(Current/Filed)
0kts
Departed: 10-Dec-18 12:10 PM
Arrived: 10-Dec-18 01:31 PM
Distance/Time
Traveled:
118nm/1:21
Distance/Time
To Go:
Arrived

Flight Plot

Page will automatically refresh every two minutes.

Flight plan parsing failed; only flown route is shown


Map Options




Map Legend


Flown Route
Filed Route
Departure Airport
Arrival Airport
Navaid (VOR, NDB)
Fix

Horizontal Profiles

Position Reports

Time Latitude Longitude Heading Altitude Ground
Speed
10-Dec-18 12:09 38.659728 -120.966833 262 2128ft 108kts
10-Dec-18 12:10 38.659188 -120.996142 266 2567ft 86kts
10-Dec-18 12:11 38.658408 -121.036672 264 2066ft 127kts
10-Dec-18 12:12 38.648207 -121.082337 245 1542ft 139kts
10-Dec-18 12:13 38.642931 -121.126396 270 1375ft 128kts
10-Dec-18 12:14 38.639963 -121.170657 263 1114ft 136kts
10-Dec-18 12:15 38.629268 -121.216061 245 777ft 126kts
10-Dec-18 12:16 38.614065 -121.255270 242 460ft 128kts
10-Dec-18 12:17 38.598859 -121.291034 239 531ft 108kts
10-Dec-18 12:18 38.580881 -121.322222 234 579ft 108kts
10-Dec-18 12:19 38.565267 -121.355574 231 848ft 101kts
10-Dec-18 12:20 38.557017 -121.397985 266 520ft 122kts
10-Dec-18 12:21 38.551982 -121.440532 259 653ft 109kts
10-Dec-18 12:22 38.552866 -121.469029 255 606ft 136kts
10-Dec-18 12:23 38.546200 -121.514315 254 956ft 129kts
10-Dec-18 12:24 38.541395 -121.559900 254 1002ft 140kts
10-Dec-18 12:25 38.538146 -121.600198 331 2297ft 57kts
10-Dec-18 12:26 38.538225 -121.651151 276 1135ft 156kts
10-Dec-18 12:26 38.537227 -121.698159 260 652ft 159kts
10-Dec-18 12:27 38.527099 -121.749420 241 714ft 140kts
10-Dec-18 12:29 38.491186 -121.788025 207 659ft 152kts
10-Dec-18 12:29 38.461070 -121.812060 219 580ft 148kts
10-Dec-18 12:30 38.427303 -121.842925 212 484ft 156kts
10-Dec-18 12:31 38.393660 -121.875055 215 514ft 149kts
10-Dec-18 12:33 38.354580 -121.906757 210 720ft 124kts
10-Dec-18 12:33 38.330504 -121.928818 217 1267ft 143kts
10-Dec-18 12:34 38.295050 -121.958148 215 1367ft 154kts
10-Dec-18 12:35 38.266679 -121.995309 231 1175ft 139kts
10-Dec-18 12:36 38.233130 -122.022385 192 762ft 155kts
10-Dec-18 12:37 38.193850 -122.026041 177 1053ft 137kts
10-Dec-18 12:38 38.156100 -122.039918 206 1164ft 147kts
10-Dec-18 12:39 38.120604 -122.061727 212 990ft 136kts
10-Dec-18 12:40 38.091935 -122.092782 236 747ft 140kts
10-Dec-18 12:41 38.076418 -122.134939 244 720ft 134kts
10-Dec-18 12:42 38.058828 -122.175047 240 711ft 131kts
10-Dec-18 12:43 38.044564 -122.216209 251 826ft 123kts
10-Dec-18 12:44 38.032349 -122.258782 243 653ft 138kts
10-Dec-18 12:45 38.018010 -122.303072 248 589ft 127kts
10-Dec-18 12:46 38.001801 -122.344065 238 435ft 140kts
10-Dec-18 12:47 37.976793 -122.380903 230 315ft 132kts
10-Dec-18 12:48 37.959079 -122.417863 212 556ft 123kts
10-Dec-18 12:49 37.923508 -122.424331 174 415ft 138kts
10-Dec-18 12:50 37.887153 -122.415464 163 402ft 136kts
10-Dec-18 12:51 37.850924 -122.401664 160 298ft 139kts
10-Dec-18 12:52 37.814299 -122.387152 163 294ft 130kts
10-Dec-18 12:53 37.780476 -122.384786 185 590ft 122kts
10-Dec-18 12:54 37.781022 -122.420629 291 514ft 127kts
10-Dec-18 12:55 37.786942 -122.463147 276 678ft 121kts
10-Dec-18 12:56 37.768548 -122.497703 202 432ft 140kts
10-Dec-18 12:57 37.732212 -122.512345 189 368ft 136kts
10-Dec-18 12:58 37.694358 -122.510421 171 311ft 134kts
10-Dec-18 12:59 37.657360 -122.512680 181 310ft 133kts
10-Dec-18 13:00 37.622891 -122.516005 193 689ft 113kts
10-Dec-18 13:01 37.588075 -122.521966 174 501ft 141kts
10-Dec-18 13:02 37.550102 -122.518675 182 550ft 128kts
10-Dec-18 13:03 37.516044 -122.517766 156 680ft 130kts
10-Dec-18 13:04 37.486928 -122.496845 152 1108ft 113kts
10-Dec-18 13:05 37.457916 -122.480269 154 1361ft 123kts
10-Dec-18 13:06 37.423613 -122.453376 143 646ft 153kts
10-Dec-18 13:07 37.385725 -122.431414 158 285ft 146kts
10-Dec-18 13:08 37.347960 -122.421238 174 253ft 138kts
10-Dec-18 13:09 37.312884 -122.421592 187 688ft 110kts
10-Dec-18 13:10 37.280804 -122.426130 177 843ft 128kts
10-Dec-18 13:11 37.243078 -122.420370 165 655ft 137kts
10-Dec-18 13:12 37.209088 -122.403243 149 824ft 127kts
10-Dec-18 13:13 37.181518 -122.378243 136 1156ft 117kts
10-Dec-18 13:14 37.154538 -122.356407 140 1386ft 127kts
10-Dec-18 13:15 37.128163 -122.324926 130 1499ft 121kts
10-Dec-18 13:16 37.104494 -122.293542 138 1534ft 135kts
10-Dec-18 13:17 37.073814 -122.261875 139 1219ft 140kts
10-Dec-18 13:18 37.042928 -122.230805 142 912ft 149kts
10-Dec-18 13:19 37.011467 -122.200076 133 765ft 141kts
10-Dec-18 13:20 36.992614 -122.161601 106 960ft 129kts
10-Dec-18 13:21 36.982313 -122.118440 100 924ft 141kts
10-Dec-18 13:22 36.973010 -122.072048 100 926ft 131kts
10-Dec-18 13:23 36.969628 -122.026970 101 803ft 143kts
10-Dec-18 13:24 36.959396 -121.980944 99 857ft 130kts
10-Dec-18 13:25 36.948656 -121.934275 110 487ft 149kts
10-Dec-18 13:26 36.926270 -121.894911 124 652ft 126kts
10-Dec-18 13:27 36.917185 -121.857402 79 1027ft 119kts
10-Dec-18 13:28 36.919273 -121.814509 71 839ft 92kts
10-Dec-18 13:29 36.930999 -121.794052 14 274ft 43kts
10-Dec-18 13:30 36.934419 -121.790022 132 149ft 11kts
10-Dec-18 13:31 36.934007 -121.789051 155 145ft 0kts
10-Dec-18 13:32 36.934006 -121.789051 155 145ft 0kts
10-Dec-18 13:33 36.934007 -121.789050 152 145ft 0kts
10-Dec-18 13:34 36.934007 -121.789046 151 145ft 0kts
10-Dec-18 13:35 36.934006 -121.789046 150 145ft 0kts

Navigation Log

Ident Type
Flight plan parsing failed, navigation log unavailable